sensor_id;sensor_type;location;lat;lon;timestamp;P1;durP1;ratioP1;P2;durP2;ratioP2
43325;SDS011;28920;59.862;30.636;2024-03-02T00:01:09;14.43;;;7.53;;
43325;SDS011;28920;59.862;30.636;2024-03-02T00:03:36;44.47;;;22.37;;
43325;SDS011;28920;59.862;30.636;2024-03-02T00:06:03;44.83;;;19.15;;
43325;SDS011;28920;59.862;30.636;2024-03-02T00:08:31;28.92;;;14.15;;
43325;SDS011;28920;59.862;30.636;2024-03-02T00:10:58;34.20;;;15.75;;
43325;SDS011;28920;59.862;30.636;2024-03-02T00:13:25;57.10;;;24.23;;
43325;SDS011;28920;59.862;30.636;2024-03-02T00:15:52;65.87;;;28.15;;
43325;SDS011;28920;59.862;30.636;2024-03-02T00:18:20;52.40;;;23.02;;
43325;SDS011;28920;59.862;30.636;2024-03-02T00:20:47;55.03;;;26.48;;
43325;SDS011;28920;59.862;30.636;2024-03-02T00:23:14;30.15;;;15.70;;
43325;SDS011;28920;59.862;30.636;2024-03-02T00:25:43;18.75;;;10.05;;
43325;SDS011;28920;59.862;30.636;2024-03-02T00:28:16;16.58;;;6.97;;
43325;SDS011;28920;59.862;30.636;2024-03-02T00:30:51;12.32;;;6.40;;
43325;SDS011;28920;59.862;30.636;2024-03-02T00:33:18;14.23;;;7.12;;
43325;SDS011;28920;59.862;30.636;2024-03-02T00:35:46;17.35;;;10.73;;
43325;SDS011;28920;59.862;30.636;2024-03-02T00:38:13;16.45;;;11.05;;
43325;SDS011;28920;59.862;30.636;2024-03-02T00:40:42;19.23;;;11.32;;
43325;SDS011;28920;59.862;30.636;2024-03-02T00:43:11;18.30;;;10.50;;
43325;SDS011;28920;59.862;30.636;2024-03-02T00:45:45;14.90;;;8.25;;
43325;SDS011;28920;59.862;30.636;2024-03-02T00:48:12;13.38;;;7.60;;
43325;SDS011;28920;59.862;30.636;2024-03-02T00:50:41;15.13;;;7.18;;
43325;SDS011;28920;59.862;30.636;2024-03-02T00:53:09;14.05;;;8.82;;
43325;SDS011;28920;59.862;30.636;2024-03-02T00:55:36;9.05;;;6.85;;
43325;SDS011;28920;59.862;30.636;2024-03-02T00:58:04;17.37;;;8.90;;
43325;SDS011;28920;59.862;30.636;2024-03-02T01:00:30;15.95;;;9.73;;
43325;SDS011;28920;59.862;30.636;2024-03-02T01:02:57;16.05;;;9.60;;
43325;SDS011;28920;59.862;30.636;2024-03-02T01:05:24;16.83;;;9.27;;
43325;SDS011;28920;59.862;30.636;2024-03-02T01:07:50;15.25;;;8.75;;
43325;SDS011;28920;59.862;30.636;2024-03-02T01:10:17;12.30;;;8.93;;
43325;SDS011;28920;59.862;30.636;2024-03-02T01:12:44;12.63;;;8.02;;
43325;SDS011;28920;59.862;30.636;2024-03-02T01:15:11;12.98;;;8.50;;
43325;SDS011;28920;59.862;30.636;2024-03-02T01:17:38;13.40;;;7.40;;
43325;SDS011;28920;59.862;30.636;2024-03-02T01:20:06;14.07;;;7.97;;
43325;SDS011;28920;59.862;30.636;2024-03-02T01:22:34;12.07;;;6.80;;
43325;SDS011;28920;59.862;30.636;2024-03-02T01:25:02;10.48;;;7.05;;
43325;SDS011;28920;59.862;30.636;2024-03-02T01:27:29;10.02;;;7.03;;
43325;SDS011;28920;59.862;30.636;2024-03-02T01:29:55;13.02;;;6.97;;
43325;SDS011;28920;59.862;30.636;2024-03-02T01:32:23;9.38;;;6.45;;
43325;SDS011;28920;59.862;30.636;2024-03-02T01:34:49;11.07;;;7.47;;
43325;SDS011;28920;59.862;30.636;2024-03-02T01:37:16;11.88;;;7.78;;
43325;SDS011;28920;59.862;30.636;2024-03-02T01:39:43;12.50;;;8.00;;
43325;SDS011;28920;59.862;30.636;2024-03-02T01:42:09;13.77;;;7.40;;
43325;SDS011;28920;59.862;30.636;2024-03-02T01:44:36;14.60;;;8.13;;
43325;SDS011;28920;59.862;30.636;2024-03-02T01:47:03;11.32;;;7.40;;
43325;SDS011;28920;59.862;30.636;2024-03-02T01:49:31;12.60;;;8.68;;
43325;SDS011;28920;59.862;30.636;2024-03-02T01:51:58;17.98;;;9.88;;
43325;SDS011;28920;59.862;30.636;2024-03-02T01:54:25;13.93;;;9.85;;
43325;SDS011;28920;59.862;30.636;2024-03-02T01:56:52;14.13;;;9.60;;
43325;SDS011;28920;59.862;30.636;2024-03-02T01:59:19;13.40;;;8.25;;
43325;SDS011;28920;59.862;30.636;2024-03-02T02:01:45;14.50;;;9.23;;
43325;SDS011;28920;59.862;30.636;2024-03-02T02:04:12;13.35;;;8.65;;
43325;SDS011;28920;59.862;30.636;2024-03-02T02:06:40;16.08;;;10.27;;
43325;SDS011;28920;59.862;30.636;2024-03-02T02:09:06;20.95;;;12.45;;
43325;SDS011;28920;59.862;30.636;2024-03-02T02:11:34;23.05;;;15.48;;
43325;SDS011;28920;59.862;30.636;2024-03-02T02:14:01;23.77;;;15.02;;
43325;SDS011;28920;59.862;30.636;2024-03-02T02:16:27;15.27;;;10.60;;
43325;SDS011;28920;59.862;30.636;2024-03-02T02:18:55;15.02;;;6.97;;
43325;SDS011;28920;59.862;30.636;2024-03-02T02:21:23;15.02;;;10.23;;
43325;SDS011;28920;59.862;30.636;2024-03-02T02:23:49;12.37;;;6.97;;
43325;SDS011;28920;59.862;30.636;2024-03-02T02:26:16;9.25;;;5.87;;
43325;SDS011;28920;59.862;30.636;2024-03-02T02:28:43;9.75;;;6.00;;
43325;SDS011;28920;59.862;30.636;2024-03-02T02:31:12;10.18;;;6.57;;
43325;SDS011;28920;59.862;30.636;2024-03-02T02:33:39;10.57;;;7.53;;
43325;SDS011;28920;59.862;30.636;2024-03-02T02:36:06;11.00;;;6.85;;
43325;SDS011;28920;59.862;30.636;2024-03-02T02:38:34;10.48;;;5.37;;
43325;SDS011;28920;59.862;30.636;2024-03-02T02:41:03;10.68;;;6.35;;
43325;SDS011;28920;59.862;30.636;2024-03-02T02:43:29;10.75;;;6.12;;
43325;SDS011;28920;59.862;30.636;2024-03-02T02:45:56;12.30;;;6.25;;
43325;SDS011;28920;59.862;30.636;2024-03-02T02:48:23;8.75;;;5.85;;
43325;SDS011;28920;59.862;30.636;2024-03-02T02:50:49;9.15;;;6.00;;
43325;SDS011;28920;59.862;30.636;2024-03-02T02:53:16;11.07;;;6.72;;
43325;SDS011;28920;59.862;30.636;2024-03-02T02:55:43;11.12;;;6.43;;
43325;SDS011;28920;59.862;30.636;2024-03-02T02:58:10;10.82;;;6.75;;
43325;SDS011;28920;59.862;30.636;2024-03-02T03:00:37;12.45;;;6.20;;
43325;SDS011;28920;59.862;30.636;2024-03-02T03:03:04;9.43;;;6.28;;
43325;SDS011;28920;59.862;30.636;2024-03-02T03:05:30;11.40;;;6.37;;
43325;SDS011;28920;59.862;30.636;2024-03-02T03:07:57;9.50;;;5.95;;
43325;SDS011;28920;59.862;30.636;2024-03-02T03:10:24;8.93;;;6.03;;
43325;SDS011;28920;59.862;30.636;2024-03-02T03:12:53;9.38;;;5.43;;
43325;SDS011;28920;59.862;30.636;2024-03-02T03:15:22;8.05;;;5.50;;
43325;SDS011;28920;59.862;30.636;2024-03-02T03:17:49;9.23;;;5.50;;
43325;SDS011;28920;59.862;30.636;2024-03-02T03:20:16;7.45;;;5.72;;
43325;SDS011;28920;59.862;30.636;2024-03-02T03:22:43;9.85;;;5.95;;
43325;SDS011;28920;59.862;30.636;2024-03-02T03:25:10;9.50;;;6.40;;
43325;SDS011;28920;59.862;30.636;2024-03-02T03:27:36;8.88;;;6.37;;
43325;SDS011;28920;59.862;30.636;2024-03-02T03:30:04;10.13;;;7.10;;
43325;SDS011;28920;59.862;30.636;2024-03-02T03:32:32;11.82;;;5.87;;
43325;SDS011;28920;59.862;30.636;2024-03-02T03:34:59;8.18;;;5.75;;
43325;SDS011;28920;59.862;30.636;2024-03-02T03:37:25;9.23;;;5.85;;
43325;SDS011;28920;59.862;30.636;2024-03-02T03:39:58;8.13;;;5.87;;
43325;SDS011;28920;59.862;30.636;2024-03-02T03:42:25;8.10;;;5.30;;
43325;SDS011;28920;59.862;30.636;2024-03-02T03:44:51;12.80;;;6.18;;
43325;SDS011;28920;59.862;30.636;2024-03-02T03:47:19;7.68;;;5.75;;
43325;SDS011;28920;59.862;30.636;2024-03-02T03:49:46;8.88;;;5.30;;
43325;SDS011;28920;59.862;30.636;2024-03-02T03:52:13;9.30;;;5.55;;
43325;SDS011;28920;59.862;30.636;2024-03-02T03:54:39;6.85;;;5.07;;
43325;SDS011;28920;59.862;30.636;2024-03-02T03:57:08;8.00;;;5.20;;
43325;SDS011;28920;59.862;30.636;2024-03-02T03:59:35;7.15;;;4.43;;
43325;SDS011;28920;59.862;30.636;2024-03-02T04:02:03;8.82;;;5.50;;
43325;SDS011;28920;59.862;30.636;2024-03-02T04:04:31;7.28;;;4.68;;
43325;SDS011;28920;59.862;30.636;2024-03-02T04:06:59;7.32;;;4.97;;
43325;SDS011;28920;59.862;30.636;2024-03-02T04:09:26;6.87;;;3.87;;
43325;SDS011;28920;59.862;30.636;2024-03-02T04:11:53;6.65;;;3.92;;
43325;SDS011;28920;59.862;30.636;2024-03-02T04:14:20;6.30;;;4.00;;
43325;SDS011;28920;59.862;30.636;2024-03-02T04:16:46;5.82;;;3.92;;
43325;SDS011;28920;59.862;30.636;2024-03-02T04:19:13;5.18;;;3.90;;
43325;SDS011;28920;59.862;30.636;2024-03-02T04:21:40;7.25;;;4.65;;
43325;SDS011;28920;59.862;30.636;2024-03-02T04:24:07;5.15;;;3.70;;
43325;SDS011;28920;59.862;30.636;2024-03-02T04:26:34;6.87;;;3.70;;
43325;SDS011;28920;59.862;30.636;2024-03-02T04:29:01;8.05;;;4.32;;
43325;SDS011;28920;59.862;30.636;2024-03-02T04:31:27;6.60;;;3.97;;
43325;SDS011;28920;59.862;30.636;2024-03-02T04:33:54;7.40;;;4.87;;
43325;SDS011;28920;59.862;30.636;2024-03-02T04:36:21;11.02;;;5.20;;
43325;SDS011;28920;59.862;30.636;2024-03-02T04:38:48;5.15;;;3.87;;
43325;SDS011;28920;59.862;30.636;2024-03-02T04:41:15;7.78;;;4.65;;
43325;SDS011;28920;59.862;30.636;2024-03-02T04:43:42;5.80;;;4.15;;
43325;SDS011;28920;59.862;30.636;2024-03-02T04:46:09;7.20;;;3.80;;
43325;SDS011;28920;59.862;30.636;2024-03-02T04:48:37;6.90;;;4.55;;
43325;SDS011;28920;59.862;30.636;2024-03-02T04:51:03;8.15;;;5.05;;
43325;SDS011;28920;59.862;30.636;2024-03-02T04:53:30;5.72;;;4.07;;
43325;SDS011;28920;59.862;30.636;2024-03-02T04:55:57;7.35;;;4.15;;
43325;SDS011;28920;59.862;30.636;2024-03-02T04:58:52;7.87;;;4.60;;
43325;SDS011;28920;59.862;30.636;2024-03-02T05:01:19;6.97;;;3.78;;
43325;SDS011;28920;59.862;30.636;2024-03-02T05:03:46;8.32;;;3.58;;
43325;SDS011;28920;59.862;30.636;2024-03-02T05:06:12;6.50;;;3.80;;
43325;SDS011;28920;59.862;30.636;2024-03-02T05:08:39;6.53;;;3.75;;
43325;SDS011;28920;59.862;30.636;2024-03-02T05:11:06;6.55;;;4.03;;
43325;SDS011;28920;59.862;30.636;2024-03-02T05:13:52;7.82;;;4.90;;
43325;SDS011;28920;59.862;30.636;2024-03-02T05:16:18;8.85;;;4.82;;
43325;SDS011;28920;59.862;30.636;2024-03-02T05:18:45;9.32;;;4.50;;
43325;SDS011;28920;59.862;30.636;2024-03-02T05:21:12;6.45;;;3.78;;
43325;SDS011;28920;59.862;30.636;2024-03-02T05:23:39;8.13;;;4.37;;
43325;SDS011;28920;59.862;30.636;2024-03-02T05:26:05;8.35;;;4.50;;
43325;SDS011;28920;59.862;30.636;2024-03-02T05:28:33;8.63;;;5.72;;
43325;SDS011;28920;59.862;30.636;2024-03-02T05:30:59;8.52;;;4.75;;
43325;SDS011;28920;59.862;30.636;2024-03-02T05:33:26;9.13;;;5.25;;
43325;SDS011;28920;59.862;30.636;2024-03-02T05:35:53;8.85;;;5.32;;
43325;SDS011;28920;59.862;30.636;2024-03-02T05:38:19;10.95;;;6.62;;
43325;SDS011;28920;59.862;30.636;2024-03-02T05:40:47;9.10;;;5.75;;
43325;SDS011;28920;59.862;30.636;2024-03-02T05:43:14;9.52;;;5.70;;
43325;SDS011;28920;59.862;30.636;2024-03-02T05:45:42;7.87;;;5.30;;
43325;SDS011;28920;59.862;30.636;2024-03-02T05:48:08;9.70;;;5.62;;
43325;SDS011;28920;59.862;30.636;2024-03-02T05:50:35;6.47;;;4.37;;
43325;SDS011;28920;59.862;30.636;2024-03-02T05:53:02;8.57;;;5.03;;
43325;SDS011;28920;59.862;30.636;2024-03-02T05:55:29;9.68;;;6.00;;
43325;SDS011;28920;59.862;30.636;2024-03-02T05:57:56;11.10;;;6.50;;
43325;SDS011;28920;59.862;30.636;2024-03-02T06:00:37;15.63;;;13.93;;
43325;SDS011;28920;59.862;30.636;2024-03-02T06:03:05;15.45;;;13.85;;
43325;SDS011;28920;59.862;30.636;2024-03-02T06:05:33;12.37;;;9.55;;
43325;SDS011;28920;59.862;30.636;2024-03-02T06:08:00;11.12;;;6.87;;
43325;SDS011;28920;59.862;30.636;2024-03-02T06:10:27;8.68;;;6.07;;
43325;SDS011;28920;59.862;30.636;2024-03-02T06:12:53;8.25;;;5.68;;
43325;SDS011;28920;59.862;30.636;2024-03-02T06:15:20;17.45;;;13.77;;
43325;SDS011;28920;59.862;30.636;2024-03-02T06:17:47;11.73;;;10.40;;
43325;SDS011;28920;59.862;30.636;2024-03-02T06:20:14;8.25;;;6.15;;
43325;SDS011;28920;59.862;30.636;2024-03-02T06:22:41;7.43;;;5.55;;
43325;SDS011;28920;59.862;30.636;2024-03-02T06:25:08;6.97;;;4.90;;
43325;SDS011;28920;59.862;30.636;2024-03-02T06:27:34;8.50;;;5.43;;
43325;SDS011;28920;59.862;30.636;2024-03-02T06:30:01;8.13;;;6.07;;
43325;SDS011;28920;59.862;30.636;2024-03-02T06:32:30;7.28;;;5.00;;
43325;SDS011;28920;59.862;30.636;2024-03-02T06:34:56;6.60;;;3.92;;
43325;SDS011;28920;59.862;30.636;2024-03-02T06:37:24;7.30;;;4.95;;
43325;SDS011;28920;59.862;30.636;2024-03-02T06:39:51;6.65;;;4.25;;
43325;SDS011;28920;59.862;30.636;2024-03-02T06:42:17;8.60;;;5.85;;
43325;SDS011;28920;59.862;30.636;2024-03-02T06:44:44;7.25;;;4.72;;
43325;SDS011;28920;59.862;30.636;2024-03-02T06:47:11;14.43;;;7.87;;
43325;SDS011;28920;59.862;30.636;2024-03-02T06:49:37;12.55;;;5.97;;
43325;SDS011;28920;59.862;30.636;2024-03-02T06:52:04;6.25;;;4.55;;
43325;SDS011;28920;59.862;30.636;2024-03-02T06:54:32;7.95;;;5.03;;
43325;SDS011;28920;59.862;30.636;2024-03-02T06:57:00;9.27;;;5.53;;
43325;SDS011;28920;59.862;30.636;2024-03-02T06:59:27;6.22;;;4.45;;
43325;SDS011;28920;59.862;30.636;2024-03-02T07:01:53;6.85;;;3.85;;
43325;SDS011;28920;59.862;30.636;2024-03-02T07:04:20;7.18;;;4.82;;
43325;SDS011;28920;59.862;30.636;2024-03-02T07:06:47;8.10;;;4.50;;
43325;SDS011;28920;59.862;30.636;2024-03-02T07:09:13;11.27;;;7.30;;
43325;SDS011;28920;59.862;30.636;2024-03-02T07:11:41;6.05;;;4.47;;
43325;SDS011;28920;59.862;30.636;2024-03-02T07:14:07;6.87;;;4.93;;
43325;SDS011;28920;59.862;30.636;2024-03-02T07:16:37;7.35;;;4.50;;
43325;SDS011;28920;59.862;30.636;2024-03-02T07:19:04;6.53;;;4.68;;
43325;SDS011;28920;59.862;30.636;2024-03-02T07:21:32;8.20;;;5.37;;
43325;SDS011;28920;59.862;30.636;2024-03-02T07:23:59;9.98;;;5.97;;
43325;SDS011;28920;59.862;30.636;2024-03-02T07:26:28;7.07;;;5.07;;
43325;SDS011;28920;59.862;30.636;2024-03-02T07:28:57;7.45;;;4.87;;
43325;SDS011;28920;59.862;30.636;2024-03-02T07:31:25;7.15;;;4.40;;
43325;SDS011;28920;59.862;30.636;2024-03-02T07:33:51;6.47;;;4.75;;
43325;SDS011;28920;59.862;30.636;2024-03-02T07:36:18;7.20;;;5.25;;
43325;SDS011;28920;59.862;30.636;2024-03-02T07:38:45;9.10;;;4.90;;
43325;SDS011;28920;59.862;30.636;2024-03-02T07:41:12;8.50;;;4.97;;
43325;SDS011;28920;59.862;30.636;2024-03-02T07:43:38;5.82;;;4.30;;
43325;SDS011;28920;59.862;30.636;2024-03-02T07:46:06;8.38;;;5.15;;
43325;SDS011;28920;59.862;30.636;2024-03-02T07:48:33;11.50;;;7.00;;
43325;SDS011;28920;59.862;30.636;2024-03-02T07:50:59;9.50;;;5.25;;
43325;SDS011;28920;59.862;30.636;2024-03-02T07:53:28;9.43;;;6.22;;
43325;SDS011;28920;59.862;30.636;2024-03-02T07:55:54;10.15;;;6.70;;
43325;SDS011;28920;59.862;30.636;2024-03-02T07:58:27;9.30;;;6.12;;
43325;SDS011;28920;59.862;30.636;2024-03-02T08:00:54;7.22;;;4.78;;
43325;SDS011;28920;59.862;30.636;2024-03-02T08:03:22;8.20;;;5.00;;
43325;SDS011;28920;59.862;30.636;2024-03-02T08:05:48;7.45;;;4.55;;
43325;SDS011;28920;59.862;30.636;2024-03-02T08:08:15;5.50;;;3.85;;
43325;SDS011;28920;59.862;30.636;2024-03-02T08:10:42;6.85;;;4.45;;
43325;SDS011;28920;59.862;30.636;2024-03-02T08:13:08;6.75;;;4.50;;
43325;SDS011;28920;59.862;30.636;2024-03-02T08:15:35;4.75;;;3.65;;
43325;SDS011;28920;59.862;30.636;2024-03-02T08:18:02;5.70;;;4.18;;
43325;SDS011;28920;59.862;30.636;2024-03-02T08:20:29;5.15;;;3.70;;
43325;SDS011;28920;59.862;30.636;2024-03-02T08:22:57;7.87;;;4.50;;
43325;SDS011;28920;59.862;30.636;2024-03-02T08:25:24;4.28;;;3.15;;
43325;SDS011;28920;59.862;30.636;2024-03-02T08:27:50;5.65;;;4.05;;
43325;SDS011;28920;59.862;30.636;2024-03-02T08:30:17;4.82;;;3.22;;
43325;SDS011;28920;59.862;30.636;2024-03-02T08:32:44;7.97;;;6.05;;
43325;SDS011;28920;59.862;30.636;2024-03-02T08:35:13;6.18;;;4.00;;
43325;SDS011;28920;59.862;30.636;2024-03-02T08:37:40;5.40;;;3.50;;
43325;SDS011;28920;59.862;30.636;2024-03-02T08:40:08;5.40;;;3.62;;
43325;SDS011;28920;59.862;30.636;2024-03-02T08:42:35;5.95;;;4.90;;
43325;SDS011;28920;59.862;30.636;2024-03-02T08:45:02;8.43;;;6.25;;
43325;SDS011;28920;59.862;30.636;2024-03-02T08:47:30;18.83;;;11.05;;
43325;SDS011;28920;59.862;30.636;2024-03-02T08:49:56;4.70;;;3.55;;
43325;SDS011;28920;59.862;30.636;2024-03-02T08:52:23;5.10;;;3.25;;
43325;SDS011;28920;59.862;30.636;2024-03-02T08:54:51;6.18;;;4.07;;
43325;SDS011;28920;59.862;30.636;2024-03-02T08:57:17;4.95;;;3.72;;
43325;SDS011;28920;59.862;30.636;2024-03-02T08:59:44;6.05;;;4.20;;
43325;SDS011;28920;59.862;30.636;2024-03-02T09:02:11;6.45;;;3.83;;
43325;SDS011;28920;59.862;30.636;2024-03-02T09:04:38;6.72;;;4.72;;
43325;SDS011;28920;59.862;30.636;2024-03-02T09:07:04;26.42;;;11.93;;
43325;SDS011;28920;59.862;30.636;2024-03-02T09:09:31;9.98;;;6.97;;
43325;SDS011;28920;59.862;30.636;2024-03-02T09:11:59;5.43;;;4.30;;
43325;SDS011;28920;59.862;30.636;2024-03-02T09:14:25;6.55;;;5.53;;
43325;SDS011;28920;59.862;30.636;2024-03-02T09:16:52;6.43;;;4.30;;
43325;SDS011;28920;59.862;30.636;2024-03-02T09:19:19;7.37;;;4.80;;
43325;SDS011;28920;59.862;30.636;2024-03-02T09:21:46;5.37;;;3.50;;
43325;SDS011;28920;59.862;30.636;2024-03-02T09:24:12;5.32;;;3.80;;
43325;SDS011;28920;59.862;30.636;2024-03-02T09:26:39;8.50;;;4.40;;
43325;SDS011;28920;59.862;30.636;2024-03-02T09:29:07;5.80;;;4.40;;
43325;SDS011;28920;59.862;30.636;2024-03-02T09:31:38;4.72;;;3.95;;
43325;SDS011;28920;59.862;30.636;2024-03-02T09:34:05;5.68;;;3.85;;
43325;SDS011;28920;59.862;30.636;2024-03-02T09:36:31;7.93;;;5.65;;
43325;SDS011;28920;59.862;30.636;2024-03-02T09:38:59;5.68;;;3.60;;
43325;SDS011;28920;59.862;30.636;2024-03-02T09:41:26;5.30;;;3.50;;
43325;SDS011;28920;59.862;30.636;2024-03-02T09:43:53;27.55;;;25.10;;
43325;SDS011;28920;59.862;30.636;2024-03-02T09:46:21;6.53;;;5.80;;
43325;SDS011;28920;59.862;30.636;2024-03-02T09:48:48;5.97;;;4.25;;
43325;SDS011;28920;59.862;30.636;2024-03-02T09:51:14;5.12;;;3.62;;
43325;SDS011;28920;59.862;30.636;2024-03-02T09:53:45;5.32;;;4.00;;
43325;SDS011;28920;59.862;30.636;2024-03-02T09:56:13;5.75;;;4.15;;
43325;SDS011;28920;59.862;30.636;2024-03-02T09:58:41;3.78;;;3.25;;
43325;SDS011;28920;59.862;30.636;2024-03-02T10:01:08;9.38;;;5.40;;
43325;SDS011;28920;59.862;30.636;2024-03-02T10:03:37;4.75;;;3.80;;
43325;SDS011;28920;59.862;30.636;2024-03-02T10:06:19;4.50;;;3.17;;
43325;SDS011;28920;59.862;30.636;2024-03-02T10:08:46;4.65;;;3.83;;
43325;SDS011;28920;59.862;30.636;2024-03-02T10:11:25;4.35;;;3.08;;
43325;SDS011;28920;59.862;30.636;2024-03-02T10:13:59;4.95;;;3.62;;
43325;SDS011;28920;59.862;30.636;2024-03-02T10:16:30;63.53;;;32.22;;
43325;SDS011;28920;59.862;30.636;2024-03-02T10:18:57;14.23;;;8.45;;
43325;SDS011;28920;59.862;30.636;2024-03-02T10:21:24;14.00;;;8.70;;
43325;SDS011;28920;59.862;30.636;2024-03-02T10:23:51;7.82;;;5.78;;
43325;SDS011;28920;59.862;30.636;2024-03-02T10:26:18;5.65;;;3.90;;
43325;SDS011;28920;59.862;30.636;2024-03-02T10:28:45;5.97;;;3.53;;
43325;SDS011;28920;59.862;30.636;2024-03-02T10:31:13;5.25;;;3.75;;
43325;SDS011;28920;59.862;30.636;2024-03-02T10:33:40;4.40;;;3.45;;
43325;SDS011;28920;59.862;30.636;2024-03-02T10:36:07;4.68;;;3.33;;
43325;SDS011;28920;59.862;30.636;2024-03-02T10:38:34;5.03;;;3.37;;
43325;SDS011;28920;59.862;30.636;2024-03-02T10:41:01;5.78;;;3.42;;
43325;SDS011;28920;59.862;30.636;2024-03-02T10:43:29;5.70;;;3.97;;
43325;SDS011;28920;59.862;30.636;2024-03-02T10:45:56;5.95;;;3.87;;
43325;SDS011;28920;59.862;30.636;2024-03-02T10:48:25;5.03;;;3.75;;
43325;SDS011;28920;59.862;30.636;2024-03-02T10:50:52;5.43;;;4.12;;
43325;SDS011;28920;59.862;30.636;2024-03-02T10:53:19;4.95;;;3.60;;
43325;SDS011;28920;59.862;30.636;2024-03-02T10:55:47;6.05;;;4.32;;
43325;SDS011;28920;59.862;30.636;2024-03-02T10:58:16;5.22;;;3.87;;
43325;SDS011;28920;59.862;30.636;2024-03-02T11:00:43;4.95;;;3.62;;
43325;SDS011;28920;59.862;30.636;2024-03-02T11:03:12;5.30;;;3.87;;
43325;SDS011;28920;59.862;30.636;2024-03-02T11:05:40;5.62;;;3.67;;
43325;SDS011;28920;59.862;30.636;2024-03-02T11:08:07;5.35;;;3.40;;
43325;SDS011;28920;59.862;30.636;2024-03-02T11:10:36;6.05;;;3.97;;
43325;SDS011;28920;59.862;30.636;2024-03-02T11:13:05;5.75;;;3.50;;
43325;SDS011;28920;59.862;30.636;2024-03-02T11:15:32;4.85;;;3.75;;
43325;SDS011;28920;59.862;30.636;2024-03-02T11:18:01;6.03;;;4.28;;
43325;SDS011;28920;59.862;30.636;2024-03-02T11:20:27;5.30;;;4.07;;
43325;SDS011;28920;59.862;30.636;2024-03-02T11:22:55;6.68;;;4.53;;
43325;SDS011;28920;59.862;30.636;2024-03-02T11:25:23;7.35;;;4.65;;
43325;SDS011;28920;59.862;30.636;2024-03-02T11:27:59;7.87;;;5.20;;
43325;SDS011;28920;59.862;30.636;2024-03-02T11:33:11;5.70;;;4.00;;
43325;SDS011;28920;59.862;30.636;2024-03-02T11:35:40;5.93;;;4.10;;
43325;SDS011;28920;59.862;30.636;2024-03-02T11:38:08;9.43;;;6.25;;
43325;SDS011;28920;59.862;30.636;2024-03-02T11:40:35;7.25;;;4.80;;
43325;SDS011;28920;59.862;30.636;2024-03-02T11:43:03;7.18;;;4.50;;
43325;SDS011;28920;59.862;30.636;2024-03-02T11:45:31;5.35;;;3.95;;
43325;SDS011;28920;59.862;30.636;2024-03-02T11:48:00;5.87;;;3.65;;
43325;SDS011;28920;59.862;30.636;2024-03-02T11:50:30;5.18;;;3.67;;
43325;SDS011;28920;59.862;30.636;2024-03-02T11:52:57;4.40;;;3.33;;
43325;SDS011;28920;59.862;30.636;2024-03-02T11:55:24;6.10;;;4.62;;
43325;SDS011;28920;59.862;30.636;2024-03-02T11:57:52;5.30;;;3.53;;
43325;SDS011;28920;59.862;30.636;2024-03-02T12:00:20;6.40;;;4.45;;
43325;SDS011;28920;59.862;30.636;2024-03-02T12:02:47;6.78;;;4.43;;
43325;SDS011;28920;59.862;30.636;2024-03-02T12:05:16;6.40;;;3.90;;
43325;SDS011;28920;59.862;30.636;2024-03-02T12:07:43;6.40;;;4.25;;
43325;SDS011;28920;59.862;30.636;2024-03-02T12:10:10;7.05;;;3.95;;
43325;SDS011;28920;59.862;30.636;2024-03-02T12:12:36;6.25;;;4.50;;
43325;SDS011;28920;59.862;30.636;2024-03-02T12:15:06;7.35;;;3.65;;
43325;SDS011;28920;59.862;30.636;2024-03-02T12:17:34;6.80;;;4.05;;
43325;SDS011;28920;59.862;30.636;2024-03-02T12:20:00;5.40;;;3.78;;
43325;SDS011;28920;59.862;30.636;2024-03-02T12:22:30;5.70;;;3.97;;
43325;SDS011;28920;59.862;30.636;2024-03-02T12:24:57;6.93;;;4.40;;
43325;SDS011;28920;59.862;30.636;2024-03-02T12:27:23;7.03;;;4.50;;
43325;SDS011;28920;59.862;30.636;2024-03-02T12:29:50;5.05;;;3.70;;
43325;SDS011;28920;59.862;30.636;2024-03-02T12:32:17;5.82;;;3.78;;
43325;SDS011;28920;59.862;30.636;2024-03-02T12:34:46;5.87;;;3.83;;
43325;SDS011;28920;59.862;30.636;2024-03-02T12:37:12;6.68;;;4.53;;
43325;SDS011;28920;59.862;30.636;2024-03-02T12:39:40;4.93;;;3.65;;
43325;SDS011;28920;59.862;30.636;2024-03-02T12:42:06;5.80;;;3.95;;
43325;SDS011;28920;59.862;30.636;2024-03-02T12:44:33;4.78;;;3.28;;
43325;SDS011;28920;59.862;30.636;2024-03-02T12:47:00;4.93;;;3.28;;
43325;SDS011;28920;59.862;30.636;2024-03-02T12:49:26;4.97;;;3.15;;
43325;SDS011;28920;59.862;30.636;2024-03-02T12:51:55;5.05;;;3.92;;
43325;SDS011;28920;59.862;30.636;2024-03-02T12:54:23;5.30;;;3.65;;
43325;SDS011;28920;59.862;30.636;2024-03-02T12:56:50;4.00;;;3.00;;
43325;SDS011;28920;59.862;30.636;2024-03-02T12:59:20;4.43;;;3.28;;
43325;SDS011;28920;59.862;30.636;2024-03-02T13:01:51;4.65;;;3.47;;
43325;SDS011;28920;59.862;30.636;2024-03-02T13:04:21;4.97;;;3.47;;
43325;SDS011;28920;59.862;30.636;2024-03-02T13:06:48;4.93;;;3.25;;
43325;SDS011;28920;59.862;30.636;2024-03-02T13:09:16;5.35;;;3.87;;
43325;SDS011;28920;59.862;30.636;2024-03-02T13:11:43;5.75;;;4.00;;
43325;SDS011;28920;59.862;30.636;2024-03-02T13:14:10;5.25;;;3.53;;
43325;SDS011;28920;59.862;30.636;2024-03-02T13:16:38;7.12;;;4.15;;
43325;SDS011;28920;59.862;30.636;2024-03-02T13:19:06;5.80;;;3.62;;
43325;SDS011;28920;59.862;30.636;2024-03-02T13:21:34;6.20;;;3.92;;
43325;SDS011;28920;59.862;30.636;2024-03-02T13:24:00;4.47;;;3.60;;
43325;SDS011;28920;59.862;30.636;2024-03-02T13:26:28;5.35;;;3.75;;
43325;SDS011;28920;59.862;30.636;2024-03-02T13:28:55;5.12;;;3.80;;
43325;SDS011;28920;59.862;30.636;2024-03-02T13:31:21;7.85;;;5.00;;
43325;SDS011;28920;59.862;30.636;2024-03-02T13:33:48;5.03;;;3.70;;
43325;SDS011;28920;59.862;30.636;2024-03-02T13:36:15;6.10;;;4.15;;
43325;SDS011;28920;59.862;30.636;2024-03-02T13:38:43;4.85;;;3.90;;
43325;SDS011;28920;59.862;30.636;2024-03-02T13:41:09;5.12;;;4.00;;
43325;SDS011;28920;59.862;30.636;2024-03-02T13:43:38;5.80;;;4.10;;
43325;SDS011;28920;59.862;30.636;2024-03-02T13:46:05;6.37;;;4.10;;
43325;SDS011;28920;59.862;30.636;2024-03-02T13:48:32;5.90;;;4.10;;
43325;SDS011;28920;59.862;30.636;2024-03-02T13:50:59;5.93;;;4.45;;
43325;SDS011;28920;59.862;30.636;2024-03-02T13:53:25;6.43;;;4.65;;
43325;SDS011;28920;59.862;30.636;2024-03-02T13:55:52;6.57;;;4.32;;
43325;SDS011;28920;59.862;30.636;2024-03-02T13:58:19;8.38;;;5.65;;
43325;SDS011;28920;59.862;30.636;2024-03-02T14:00:47;6.03;;;4.50;;
43325;SDS011;28920;59.862;30.636;2024-03-02T14:03:14;6.47;;;5.50;;
43325;SDS011;28920;59.862;30.636;2024-03-02T14:05:42;7.18;;;4.90;;
43325;SDS011;28920;59.862;30.636;2024-03-02T14:08:09;8.90;;;5.12;;
43325;SDS011;28920;59.862;30.636;2024-03-02T14:10:36;6.22;;;4.57;;
43325;SDS011;28920;59.862;30.636;2024-03-02T14:13:02;7.70;;;5.30;;
43325;SDS011;28920;59.862;30.636;2024-03-02T14:15:29;7.97;;;5.47;;
43325;SDS011;28920;59.862;30.636;2024-03-02T14:17:58;6.18;;;5.10;;
43325;SDS011;28920;59.862;30.636;2024-03-02T14:20:24;5.87;;;4.25;;
43325;SDS011;28920;59.862;30.636;2024-03-02T14:22:51;7.20;;;5.12;;
43325;SDS011;28920;59.862;30.636;2024-03-02T14:25:18;7.80;;;5.20;;
43325;SDS011;28920;59.862;30.636;2024-03-02T14:27:45;8.80;;;6.35;;
43325;SDS011;28920;59.862;30.636;2024-03-02T14:30:12;9.43;;;6.07;;
43325;SDS011;28920;59.862;30.636;2024-03-02T14:32:39;9.38;;;6.15;;
43325;SDS011;28920;59.862;30.636;2024-03-02T14:35:07;9.07;;;5.65;;